createdAt,value
2022-12-28T00:19:29.544Z,6.53
2022-12-28T00:40:25.211Z,6.13
2022-12-28T01:10:12.093Z,6.63
2022-12-28T01:30:58.322Z,6.93
2022-12-28T01:56:01.746Z,7.60
2022-12-28T02:16:33.096Z,7.23
2022-12-28T03:32:07.622Z,8.73
2022-12-28T03:52:44.293Z,9.33
2022-12-28T04:12:36.327Z,9.43
2022-12-28T05:19:04.086Z,10.43
2022-12-28T05:43:51.565Z,11.70
2022-12-28T06:14:12.422Z,13.47
2022-12-28T06:50:23.380Z,15.37
2022-12-28T07:10:41.242Z,15.60
2022-12-28T07:56:09.501Z,15.23
2022-12-28T10:18:15.680Z,8.63
2022-12-28T10:22:35.895Z,8.73
2022-12-28T11:23:38.160Z,8.93
2022-12-28T12:19:19.951Z,9.50
2022-12-28T12:49:54.795Z,8.70
2022-12-28T13:35:24.845Z,8.33
2022-12-28T14:01:18.733Z,7.73
2022-12-28T14:21:07.445Z,7.40
2022-12-28T14:51:44.397Z,6.53
2022-12-28T15:26:47.116Z,6.37
2022-12-28T15:52:39.781Z,6.30
2022-12-28T16:32:59.248Z,7.50
2022-12-28T16:53:28.683Z,7.67
2022-12-28T17:43:42.576Z,8.60
2022-12-28T18:09:35.830Z,8.53
2022-12-28T18:45:08.238Z,7.80
2022-12-28T19:35:25.778Z,6.87
2022-12-28T19:56:14.978Z,6.87
2022-12-28T20:16:32.232Z,6.40
2022-12-28T20:51:57.211Z,7.47
2022-12-28T21:22:23.667Z,8.03
2022-12-28T21:47:27.639Z,7.60
2022-12-28T22:07:46.447Z,7.67
2022-12-28T22:48:38.905Z,7.40
2022-12-28T23:38:58.061Z,7.07
